createdAt,value
2019-05-20T00:00:01.487Z,14.77
2019-05-20T00:02:29.926Z,15.53
2019-05-20T00:04:58.381Z,16.13
2019-05-20T00:07:26.825Z,17.63
2019-05-20T00:09:55.269Z,18.47
2019-05-20T00:12:23.785Z,19.67
2019-05-20T00:14:52.254Z,18.63
2019-05-20T00:17:20.745Z,19.07
2019-05-20T00:19:50.741Z,19.43
2019-05-20T00:22:19.316Z,21.03
2019-05-20T00:24:47.773Z,20.87
2019-05-20T00:27:16.207Z,20.67
2019-05-20T00:29:44.733Z,20.13
2019-05-20T00:32:13.172Z,22.63
2019-05-20T00:34:41.638Z,21.73
2019-05-20T00:37:10.077Z,22.03
2019-05-20T00:39:38.509Z,24.27
2019-05-20T00:42:07.037Z,20.80
2019-05-20T00:44:35.489Z,18.63
2019-05-20T00:47:03.939Z,18.67
2019-05-20T00:49:32.387Z,19.47
2019-05-20T00:52:00.845Z,19.43
2019-05-20T00:54:29.276Z,20.43
2019-05-20T00:56:57.730Z,18.57
2019-05-20T00:59:26.176Z,20.47
2019-05-20T01:01:54.659Z,20.70
2019-05-20T01:04:23.098Z,19.63
2019-05-20T01:06:51.561Z,18.80
2019-05-20T01:09:20.021Z,19.00
2019-05-20T01:11:48.480Z,17.97
2019-05-20T01:14:16.921Z,22.47
2019-05-20T01:16:45.381Z,21.10
2019-05-20T01:19:13.818Z,19.10
2019-05-20T01:21:42.286Z,18.83
2019-05-20T01:24:10.718Z,19.67
2019-05-20T01:26:39.165Z,22.03
2019-05-20T01:29:07.601Z,17.47
2019-05-20T01:31:36.057Z,21.93
2019-05-20T01:34:04.493Z,19.77
2019-05-20T01:36:33.004Z,20.63
2019-05-20T01:39:01.477Z,21.23
2019-05-20T01:41:29.941Z,22.43
2019-05-20T01:43:58.381Z,25.20
2019-05-20T01:46:26.827Z,20.77
2019-05-20T01:48:55.293Z,18.73
2019-05-20T01:51:23.724Z,17.27
2019-05-20T01:53:52.188Z,16.60
2019-05-20T01:56:20.687Z,16.30
2019-05-20T01:58:49.150Z,16.37
2019-05-20T02:01:17.585Z,17.37
2019-05-20T02:03:46.042Z,16.57
2019-05-20T02:06:14.496Z,17.20
2019-05-20T02:08:42.982Z,16.97
2019-05-20T02:11:11.414Z,16.90
2019-05-20T02:13:53.633Z,15.67
2019-05-20T02:16:23.719Z,16.47
2019-05-20T02:18:52.166Z,15.63
2019-05-20T02:21:20.605Z,16.73
2019-05-20T02:23:49.097Z,16.50
2019-05-20T02:26:17.533Z,16.67
2019-05-20T02:28:45.988Z,16.53
2019-05-20T02:31:14.432Z,18.97
2019-05-20T02:33:51.493Z,18.60
2019-05-20T02:36:13.065Z,19.73
2019-05-20T02:38:41.515Z,18.27
2019-05-20T02:41:09.961Z,16.57
2019-05-20T02:43:38.412Z,18.00
2019-05-20T02:46:06.922Z,16.43
2019-05-20T02:48:35.393Z,18.20
2019-05-20T02:51:03.834Z,17.67
2019-05-20T02:53:32.282Z,17.47
2019-05-20T02:56:00.728Z,19.87
2019-05-20T02:58:29.178Z,17.60
2019-05-20T03:00:57.640Z,18.00
2019-05-20T03:03:26.150Z,19.33
2019-05-20T03:05:54.656Z,18.77
2019-05-20T03:08:23.117Z,16.73
2019-05-20T03:10:51.572Z,17.53
2019-05-20T03:13:20.064Z,17.13
2019-05-20T03:15:48.521Z,17.37
2019-05-20T03:18:16.961Z,21.87
2019-05-20T03:20:45.429Z,17.23
2019-05-20T03:23:13.851Z,20.67
2019-05-20T03:25:42.403Z,18.97
2019-05-20T03:28:10.900Z,19.60
2019-05-20T03:30:39.370Z,17.87
2019-05-20T03:33:07.904Z,19.53
2019-05-20T03:35:36.431Z,18.47
2019-05-20T03:38:04.935Z,19.27
2019-05-20T03:40:33.412Z,17.70
2019-05-20T03:43:01.865Z,22.10
2019-05-20T03:45:30.323Z,20.27
2019-05-20T03:47:58.772Z,19.77
2019-05-20T03:50:27.295Z,20.53
2019-05-20T03:52:55.722Z,19.43
2019-05-20T03:55:24.202Z,19.53
2019-05-20T03:57:52.719Z,20.13
2019-05-20T04:00:36.227Z,18.83
2019-05-20T04:03:04.653Z,21.93
2019-05-20T04:05:33.110Z,23.03
2019-05-20T04:08:01.547Z,20.53
2019-05-20T04:10:30.009Z,18.17
2019-05-20T04:12:58.464Z,20.57
2019-05-20T04:15:26.998Z,21.60
2019-05-20T04:17:55.433Z,18.07
2019-05-20T04:20:23.884Z,18.80
2019-05-20T04:22:52.329Z,22.50
2019-05-20T04:25:20.782Z,20.37
2019-05-20T04:27:49.235Z,19.30
2019-05-20T04:30:19.061Z,17.63
2019-05-20T04:32:47.661Z,22.07
2019-05-20T04:35:22.232Z,18.23
2019-05-20T04:37:46.342Z,17.40
2019-05-20T04:40:15.427Z,18.53
2019-05-20T04:42:43.937Z,19.77
2019-05-20T04:45:12.756Z,21.50
2019-05-20T04:47:41.197Z,20.57
2019-05-20T04:50:10.372Z,21.83
2019-05-20T04:52:38.827Z,20.13
2019-05-20T04:55:07.697Z,24.33
2019-05-20T04:57:36.272Z,21.40
2019-05-20T05:00:07.766Z,18.43
2019-05-20T05:02:36.241Z,21.27
2019-05-20T05:05:06.618Z,22.63
2019-05-20T05:07:35.068Z,24.57
2019-05-20T05:10:04.950Z,23.73
2019-05-20T05:12:33.402Z,22.37
2019-05-20T05:15:02.050Z,22.43
2019-05-20T05:17:30.653Z,22.80
2019-05-20T05:19:59.091Z,22.87
2019-05-20T05:22:27.623Z,25.93
2019-05-20T05:24:56.065Z,20.57
2019-05-20T05:27:24.539Z,19.43
2019-05-20T05:29:52.985Z,17.07
2019-05-20T05:32:23.074Z,16.57
2019-05-20T05:34:51.521Z,17.40
2019-05-20T05:37:20.046Z,16.13
2019-05-20T05:39:48.539Z,14.87
2019-05-20T05:42:17.021Z,14.77
2019-05-20T05:44:45.452Z,15.67
2019-05-20T05:47:13.904Z,15.40
2019-05-20T05:49:42.352Z,14.67
2019-05-20T05:52:10.813Z,14.70
2019-05-20T05:54:39.260Z,16.53
2019-05-20T05:57:07.730Z,16.03
2019-05-20T05:59:36.222Z,17.17
2019-05-20T06:02:04.683Z,14.67
2019-05-20T06:04:33.134Z,14.93
2019-05-20T06:07:01.604Z,15.10
2019-05-20T06:09:30.039Z,16.63
2019-05-20T06:11:58.503Z,14.47
2019-05-20T06:14:26.971Z,14.30
2019-05-20T06:16:55.459Z,14.00
2019-05-20T06:19:23.901Z,14.23
2019-05-20T06:21:52.423Z,13.73
2019-05-20T06:24:20.903Z,17.77
2019-05-20T06:26:49.351Z,15.07
2019-05-20T06:29:17.828Z,15.47
2019-05-20T06:31:46.324Z,20.70
2019-05-20T06:34:14.916Z,20.60
2019-05-20T06:36:45.214Z,17.60
2019-05-20T06:39:14.081Z,14.93
2019-05-20T06:41:42.651Z,12.57
2019-05-20T06:44:11.095Z,67.70
2019-05-20T06:46:39.573Z,18.00
2019-05-20T06:49:08.097Z,12.07
2019-05-20T06:51:36.597Z,17.57
2019-05-20T06:54:05.119Z,18.17
2019-05-20T06:56:33.556Z,12.07
2019-05-20T06:59:02.086Z,15.23
2019-05-20T07:01:30.548Z,13.43
2019-05-20T07:03:58.997Z,15.27
2019-05-20T07:06:44.128Z,13.70
2019-05-20T07:08:57.608Z,11.53
2019-05-20T07:11:26.041Z,18.33
2019-05-20T07:13:54.499Z,13.30
2019-05-20T07:16:22.935Z,13.83
2019-05-20T07:18:51.419Z,11.07
2019-05-20T07:21:19.897Z,11.13
2019-05-20T07:23:48.376Z,10.87
2019-05-20T07:26:16.823Z,10.63
2019-05-20T07:28:45.271Z,12.47
2019-05-20T07:31:13.709Z,11.53
2019-05-20T07:33:42.160Z,10.63
2019-05-20T07:36:10.593Z,10.50
2019-05-20T07:38:39.063Z,11.63
2019-05-20T07:41:07.641Z,10.83
2019-05-20T07:43:36.102Z,11.23
2019-05-20T07:46:05.076Z,8.53
2019-05-20T07:48:33.883Z,9.77
2019-05-20T07:51:02.948Z,10.03
2019-05-20T07:53:31.958Z,18.03
2019-05-20T07:56:09.161Z,10.77
2019-05-20T07:58:39.252Z,8.50
2019-05-20T08:01:07.788Z,9.17
2019-05-20T08:03:38.534Z,9.03
2019-05-20T08:06:06.442Z,11.57
2019-05-20T08:08:34.987Z,7.90
2019-05-20T08:11:03.419Z,8.83
2019-05-20T08:13:31.875Z,12.77
2019-05-20T08:16:00.305Z,7.90
2019-05-20T08:18:28.806Z,8.63
2019-05-20T08:20:57.261Z,8.10
2019-05-20T08:23:25.696Z,10.97
2019-05-20T08:25:54.144Z,8.00
2019-05-20T08:28:22.650Z,8.37
2019-05-20T08:30:51.133Z,7.50
2019-05-20T08:33:19.604Z,8.73
2019-05-20T08:35:48.058Z,7.60
2019-05-20T08:38:16.750Z,8.00
2019-05-20T08:40:48.471Z,15.00
2019-05-20T08:43:15.360Z,7.97
2019-05-20T08:45:43.834Z,8.80
2019-05-20T08:48:12.333Z,9.37
2019-05-20T08:50:40.782Z,10.23
2019-05-20T08:53:09.288Z,11.37
2019-05-20T08:55:37.854Z,14.23
2019-05-20T08:58:06.304Z,24.73
2019-05-20T09:00:34.834Z,23.50
2019-05-20T09:03:03.317Z,12.27
2019-05-20T09:05:31.779Z,9.27
2019-05-20T09:08:03.608Z,8.43
2019-05-20T09:10:30.451Z,7.87
2019-05-20T09:12:58.873Z,9.30
2019-05-20T09:15:27.474Z,7.83
2019-05-20T09:17:56.184Z,6.73
2019-05-20T09:20:24.923Z,6.50
2019-05-20T09:22:53.524Z,10.77
2019-05-20T09:25:25.121Z,11.23
2019-05-20T09:27:53.548Z,11.10
2019-05-20T09:30:22.529Z,17.57
2019-05-20T09:32:51.703Z,11.67
2019-05-20T09:35:20.217Z,14.90
2019-05-20T09:37:48.663Z,7.67
2019-05-20T09:40:20.178Z,7.53
2019-05-20T09:42:48.607Z,7.53
2019-05-20T09:45:17.185Z,6.20
2019-05-20T09:47:45.686Z,7.00
2019-05-20T09:50:14.574Z,9.03
2019-05-20T09:52:43.012Z,6.37
2019-05-20T09:55:11.524Z,6.10
2019-05-20T09:57:39.963Z,4.90
2019-05-20T10:00:10.295Z,5.00
2019-05-20T10:02:38.786Z,5.37
2019-05-20T10:05:07.391Z,8.13
2019-05-20T10:07:35.883Z,7.03
2019-05-20T10:10:06.770Z,6.53
2019-05-20T10:12:46.216Z,5.97
2019-05-20T10:15:08.555Z,33.07
2019-05-20T10:17:36.990Z,8.90
2019-05-20T10:20:09.771Z,11.13
2019-05-20T10:22:38.186Z,6.50
2019-05-20T10:25:07.114Z,8.33
2019-05-20T10:27:36.347Z,10.20
2019-05-20T10:30:07.145Z,7.27
2019-05-20T10:32:35.616Z,9.43
2019-05-20T10:35:07.725Z,6.63
2019-05-20T10:37:36.250Z,6.63
2019-05-20T10:40:05.746Z,14.73
2019-05-20T10:42:34.196Z,5.30
2019-05-20T10:45:03.037Z,6.37
2019-05-20T10:47:31.705Z,9.67
2019-05-20T10:50:00.183Z,6.60
2019-05-20T10:52:28.643Z,6.33
2019-05-20T10:54:57.072Z,6.50
2019-05-20T10:57:25.523Z,5.50
2019-05-20T10:59:54.052Z,7.30
2019-05-20T11:02:22.514Z,10.30
2019-05-20T11:04:50.984Z,8.27
2019-05-20T11:07:19.485Z,6.13
2019-05-20T11:09:47.927Z,9.77
2019-05-20T11:12:16.371Z,5.50
2019-05-20T11:14:44.836Z,5.00
2019-05-20T11:17:15.145Z,5.17
2019-05-20T11:19:43.465Z,5.23
2019-05-20T11:22:11.921Z,4.80
2019-05-20T11:24:40.348Z,6.50
2019-05-20T11:27:08.874Z,6.63
2019-05-20T11:29:37.501Z,7.23
2019-05-20T11:32:05.955Z,5.43
2019-05-20T11:34:34.493Z,8.33
2019-05-20T11:37:03.109Z,7.20
2019-05-20T11:39:34.017Z,5.37
2019-05-20T11:42:01.777Z,6.20
2019-05-20T11:44:30.229Z,6.07
2019-05-20T11:46:58.755Z,7.07
2019-05-20T11:49:29.162Z,8.23
2019-05-20T11:51:57.341Z,8.47
2019-05-20T11:54:25.860Z,7.10
2019-05-20T11:56:54.401Z,8.60
2019-05-20T11:59:22.843Z,7.57
2019-05-20T12:01:51.346Z,5.33
2019-05-20T12:04:19.779Z,6.17
2019-05-20T12:06:48.226Z,6.63
2019-05-20T12:09:16.670Z,6.93
2019-05-20T12:11:45.196Z,11.53
2019-05-20T12:14:13.624Z,8.03
2019-05-20T12:16:42.067Z,8.87
2019-05-20T12:19:10.575Z,7.40
2019-05-20T12:21:39.015Z,8.30
2019-05-20T12:24:07.474Z,5.90
2019-05-20T12:26:35.974Z,10.20
2019-05-20T12:29:04.438Z,8.00
2019-05-20T12:31:32.871Z,8.83
2019-05-20T12:34:01.314Z,7.80
2019-05-20T12:36:29.751Z,7.97
2019-05-20T12:38:58.207Z,14.60
2019-05-20T12:41:26.697Z,6.27
2019-05-20T12:44:10.817Z,11.70
2019-05-20T12:46:25.401Z,6.70
2019-05-20T12:48:53.968Z,16.17
2019-05-20T12:51:22.443Z,8.30
2019-05-20T12:53:50.926Z,7.07
2019-05-20T12:56:19.938Z,7.40
2019-05-20T12:58:48.639Z,15.10
2019-05-20T13:01:17.270Z,8.10
2019-05-20T13:03:45.731Z,8.07
2019-05-20T13:06:14.233Z,7.03
2019-05-20T13:08:42.693Z,8.00
2019-05-20T13:11:11.127Z,6.43
2019-05-20T13:13:39.591Z,7.17
2019-05-20T13:16:08.043Z,6.80
2019-05-20T13:18:36.546Z,9.80
2019-05-20T13:21:04.994Z,9.00
2019-05-20T13:23:33.449Z,6.43
2019-05-20T13:26:01.878Z,10.53
2019-05-20T13:28:30.346Z,6.50
2019-05-20T13:30:58.783Z,7.60
2019-05-20T13:33:27.237Z,7.90
2019-05-20T13:35:55.666Z,7.67
2019-05-20T13:38:24.142Z,6.90
2019-05-20T13:40:52.587Z,15.40
2019-05-20T13:43:21.037Z,18.93
2019-05-20T13:45:49.487Z,7.90
2019-05-20T13:48:17.944Z,7.70
2019-05-20T13:50:46.372Z,7.20
2019-05-20T13:53:14.823Z,7.23
2019-05-20T13:55:43.268Z,8.43
2019-05-20T13:58:11.750Z,7.63
2019-05-20T14:00:40.188Z,7.97
2019-05-20T14:03:08.652Z,8.30
2019-05-20T14:05:37.103Z,9.00
2019-05-20T14:08:05.645Z,9.07
2019-05-20T14:10:34.193Z,8.77
2019-05-20T14:13:02.629Z,11.20
2019-05-20T14:15:31.078Z,11.27
2019-05-20T14:17:59.508Z,10.00
2019-05-20T14:20:27.954Z,9.80
2019-05-20T14:22:56.382Z,10.67
2019-05-20T14:25:24.854Z,8.97
2019-05-20T14:27:53.290Z,9.20
2019-05-20T14:30:21.741Z,9.00
2019-05-20T14:32:50.173Z,9.50
2019-05-20T14:35:18.630Z,10.83
2019-05-20T14:37:47.060Z,12.77
2019-05-20T14:40:15.741Z,10.03
2019-05-20T14:42:44.174Z,11.27
2019-05-20T14:45:12.965Z,12.33
2019-05-20T14:47:41.392Z,10.70
2019-05-20T14:50:10.083Z,18.80
2019-05-20T14:52:38.657Z,15.73
2019-05-20T14:55:07.276Z,14.13
2019-05-20T14:57:35.711Z,13.97
2019-05-20T15:00:06.524Z,12.87
2019-05-20T15:02:34.978Z,12.20
2019-05-20T15:05:04.025Z,10.60
2019-05-20T15:07:32.547Z,11.13
2019-05-20T15:10:00.998Z,12.87
2019-05-20T15:12:29.429Z,14.03
2019-05-20T15:14:57.896Z,12.53
2019-05-20T15:17:26.336Z,8.60
2019-05-20T15:19:54.791Z,13.77
2019-05-20T15:22:23.235Z,10.87
2019-05-20T15:24:51.712Z,11.03
2019-05-20T15:27:20.137Z,6.67
2019-05-20T15:29:48.594Z,9.57
2019-05-20T15:32:32.526Z,8.37
2019-05-20T15:35:01.067Z,15.03
2019-05-20T15:37:29.522Z,11.37
2019-05-20T15:39:57.986Z,15.57
2019-05-20T15:42:26.431Z,10.40
2019-05-20T15:44:54.894Z,17.50
2019-05-20T15:47:23.350Z,15.23
2019-05-20T15:49:51.803Z,13.00
2019-05-20T15:52:20.238Z,14.57
2019-05-20T15:54:48.699Z,17.93
2019-05-20T15:57:17.125Z,13.53
2019-05-20T15:59:46.743Z,10.30
2019-05-20T16:02:15.334Z,10.20
2019-05-20T16:04:43.797Z,11.03
2019-05-20T16:07:12.225Z,8.93
2019-05-20T16:09:40.746Z,11.43
2019-05-20T16:12:09.242Z,11.97
2019-05-20T16:14:37.709Z,10.83
2019-05-20T16:17:06.170Z,11.47
2019-05-20T16:19:34.610Z,13.23
2019-05-20T16:22:03.136Z,11.17
2019-05-20T16:24:31.618Z,12.87
2019-05-20T16:27:00.141Z,12.33
2019-05-20T16:29:28.652Z,12.80
2019-05-20T16:31:57.101Z,12.63
2019-05-20T16:34:25.552Z,14.03
2019-05-20T16:36:54.137Z,12.97
2019-05-20T16:39:22.669Z,13.17
2019-05-20T16:41:51.122Z,13.43
2019-05-20T16:44:19.677Z,12.47
2019-05-20T16:46:48.201Z,14.63
2019-05-20T16:49:16.639Z,12.43
2019-05-20T16:51:45.101Z,14.20
2019-05-20T16:54:13.528Z,13.73
2019-05-20T16:56:41.990Z,15.27
2019-05-20T16:59:10.417Z,16.37
2019-05-20T17:01:46.278Z,14.17
2019-05-20T17:04:09.029Z,14.37
2019-05-20T17:06:37.473Z,14.40
2019-05-20T17:09:05.916Z,15.20
2019-05-20T17:11:34.461Z,15.03
2019-05-20T17:14:02.910Z,14.43
2019-05-20T17:16:31.371Z,13.43
2019-05-20T17:18:59.800Z,14.80
2019-05-20T17:21:28.258Z,12.87
2019-05-20T17:23:56.693Z,13.13
2019-05-20T17:26:25.158Z,13.80
2019-05-20T17:28:53.585Z,12.47
2019-05-20T17:31:22.039Z,12.00
2019-05-20T17:33:50.473Z,12.30
2019-05-20T17:36:18.932Z,14.03
2019-05-20T17:38:47.358Z,10.93
2019-05-20T17:41:15.812Z,12.90
2019-05-20T17:43:44.240Z,12.40
2019-05-20T17:46:12.704Z,13.00
2019-05-20T17:48:41.140Z,12.37
2019-05-20T17:51:09.666Z,13.37
2019-05-20T17:53:38.105Z,11.93
2019-05-20T17:56:06.687Z,12.97
2019-05-20T17:58:37.327Z,13.27
2019-05-20T18:01:14.647Z,12.63
2019-05-20T18:03:35.746Z,13.30
2019-05-20T18:06:04.419Z,13.27
2019-05-20T18:08:34.534Z,15.10
2019-05-20T18:11:02.993Z,12.53
2019-05-20T18:13:31.604Z,14.27
2019-05-20T18:16:00.062Z,13.43
2019-05-20T18:18:29.425Z,15.33
2019-05-20T18:20:57.866Z,16.67
2019-05-20T18:23:26.327Z,17.83
2019-05-20T18:25:54.793Z,15.00
2019-05-20T18:28:23.258Z,15.80
2019-05-20T18:30:51.699Z,14.50
2019-05-20T18:33:20.175Z,15.67
2019-05-20T18:35:48.606Z,16.43
2019-05-20T18:38:17.060Z,15.33
2019-05-20T18:40:45.971Z,15.87
2019-05-20T18:43:14.422Z,17.13
2019-05-20T18:45:42.868Z,16.83
2019-05-20T18:48:11.388Z,17.20
2019-05-20T18:50:39.825Z,18.97
2019-05-20T18:53:08.281Z,18.60
2019-05-20T18:55:36.795Z,17.07
2019-05-20T18:58:05.436Z,19.90
2019-05-20T19:00:34.004Z,17.10
2019-05-20T19:03:02.474Z,17.53
2019-05-20T19:05:30.970Z,19.57
2019-05-20T19:07:59.425Z,19.37
2019-05-20T19:10:27.866Z,20.10
2019-05-20T19:12:56.346Z,19.40
2019-05-20T19:15:24.851Z,19.37
2019-05-20T19:17:53.320Z,19.97
2019-05-20T19:20:23.125Z,20.00
2019-05-20T19:22:51.801Z,18.40
2019-05-20T19:25:20.244Z,20.97
2019-05-20T19:27:48.700Z,26.87
2019-05-20T19:30:17.205Z,19.77
2019-05-20T19:32:45.692Z,19.03
2019-05-20T19:35:14.568Z,20.93
2019-05-20T19:37:43.029Z,18.47
2019-05-20T19:40:11.735Z,20.57
2019-05-20T19:42:40.163Z,23.00
2019-05-20T19:45:09.152Z,19.57
2019-05-20T19:47:37.605Z,17.10
2019-05-20T19:50:06.946Z,18.17
2019-05-20T19:52:35.715Z,17.80
2019-05-20T19:55:05.999Z,18.30
2019-05-20T19:57:34.465Z,20.10
2019-05-20T20:00:03.909Z,19.73
2019-05-20T20:02:32.348Z,19.20
2019-05-20T20:05:00.789Z,18.63
2019-05-20T20:07:29.225Z,19.07
2019-05-20T20:09:57.679Z,17.37
2019-05-20T20:12:26.114Z,19.10
2019-05-20T20:14:54.569Z,18.40
2019-05-20T20:17:23.067Z,20.17
2019-05-20T20:19:51.572Z,18.53
2019-05-20T20:22:20.017Z,19.67
2019-05-20T20:24:48.475Z,21.33
2019-05-20T20:27:16.911Z,19.60
2019-05-20T20:29:45.372Z,18.60
2019-05-20T20:32:13.809Z,17.00
2019-05-20T20:34:42.275Z,21.40
2019-05-20T20:37:10.701Z,16.47
2019-05-20T20:39:39.162Z,17.97
2019-05-20T20:42:07.594Z,19.20
2019-05-20T20:44:36.050Z,17.03
2019-05-20T20:47:04.520Z,19.97
2019-05-20T20:49:33.021Z,16.97
2019-05-20T20:52:01.561Z,18.93
2019-05-20T20:54:30.194Z,22.37
2019-05-20T20:56:58.619Z,14.67
2019-05-20T20:59:27.095Z,16.77
2019-05-20T21:01:59.115Z,15.83
2019-05-20T21:04:25.726Z,14.53
2019-05-20T21:06:54.184Z,14.03
2019-05-20T21:09:22.633Z,15.30
2019-05-20T21:11:51.069Z,17.93
2019-05-20T21:14:19.527Z,16.70
2019-05-20T21:16:47.967Z,15.50
2019-05-20T21:19:16.429Z,14.53
2019-05-20T21:21:44.861Z,14.63
2019-05-20T21:24:13.398Z,15.80
2019-05-20T21:26:41.847Z,14.30
2019-05-20T21:29:10.277Z,14.60
2019-05-20T21:31:38.743Z,15.63
2019-05-20T21:34:07.172Z,14.17
2019-05-20T21:36:47.141Z,13.60
2019-05-20T21:39:06.331Z,15.17
2019-05-20T21:41:34.795Z,14.13
2019-05-20T21:44:03.228Z,15.60
2019-05-20T21:46:31.685Z,13.57
2019-05-20T21:49:00.117Z,13.17
2019-05-20T21:51:28.645Z,13.77
2019-05-20T21:53:57.081Z,13.80
2019-05-20T21:56:25.528Z,13.03
2019-05-20T21:58:53.960Z,13.67
2019-05-20T22:01:22.436Z,14.80
2019-05-20T22:03:50.869Z,13.13
2019-05-20T22:06:19.407Z,13.37
2019-05-20T22:08:47.837Z,13.17
2019-05-20T22:11:16.307Z,12.53
2019-05-20T22:13:44.809Z,15.03
2019-05-20T22:16:13.271Z,13.40
2019-05-20T22:18:41.704Z,13.63
2019-05-20T22:21:11.805Z,13.43
2019-05-20T22:23:50.539Z,14.37
2019-05-20T22:26:19.002Z,15.10
2019-05-20T22:28:47.497Z,15.20
2019-05-20T22:31:15.957Z,13.80
2019-05-20T22:33:44.399Z,14.07
2019-05-20T22:36:12.881Z,14.20
2019-05-20T22:38:41.310Z,13.17
2019-05-20T22:41:09.771Z,14.67
2019-05-20T22:43:38.215Z,15.03
2019-05-20T22:46:06.658Z,14.57
2019-05-20T22:48:35.095Z,13.47
2019-05-20T22:51:03.556Z,15.03
2019-05-20T22:53:32.006Z,14.13
2019-05-20T22:56:00.468Z,19.13
2019-05-20T22:58:28.912Z,17.30
2019-05-20T23:00:57.396Z,21.03
2019-05-20T23:03:25.901Z,29.27
2019-05-20T23:05:54.365Z,25.70
2019-05-20T23:08:22.889Z,24.60
2019-05-20T23:10:51.334Z,24.73
2019-05-20T23:13:19.775Z,26.63
2019-05-20T23:15:48.266Z,22.80
2019-05-20T23:18:16.869Z,29.40
2019-05-20T23:20:45.303Z,29.13
2019-05-20T23:23:13.770Z,25.10
2019-05-20T23:25:42.265Z,25.80
2019-05-20T23:28:10.718Z,21.87
2019-05-20T23:30:39.172Z,27.60
2019-05-20T23:33:07.696Z,28.10
2019-05-20T23:35:36.129Z,24.43
2019-05-20T23:38:04.589Z,25.47
2019-05-20T23:40:33.098Z,24.93
2019-05-20T23:43:01.553Z,24.43
2019-05-20T23:45:29.992Z,23.67
2019-05-20T23:47:58.440Z,22.70
2019-05-20T23:50:26.877Z,22.20
2019-05-20T23:52:55.347Z,21.27
2019-05-20T23:55:23.777Z,19.20
2019-05-20T23:57:52.236Z,21.50
